sensor_id;sensor_type;location;lat;lon;timestamp;temperature;humidity
19538;DHT22;9914;51.008;4.300;2023-02-28T00:00:32;2.00;99.90
19538;DHT22;9914;51.008;4.300;2023-02-28T00:02:58;2.20;99.90
19538;DHT22;9914;51.008;4.300;2023-02-28T00:05:25;2.10;99.90
19538;DHT22;9914;51.008;4.300;2023-02-28T00:07:51;2.00;99.90
19538;DHT22;9914;51.008;4.300;2023-02-28T00:10:20;2.10;99.90
19538;DHT22;9914;51.008;4.300;2023-02-28T00:12:47;2.10;99.90
19538;DHT22;9914;51.008;4.300;2023-02-28T00:15:13;1.90;99.90
19538;DHT22;9914;51.008;4.300;2023-02-28T00:17:38;2.00;99.90
19538;DHT22;9914;51.008;4.300;2023-02-28T00:20:05;2.00;99.90
19538;DHT22;9914;51.008;4.300;2023-02-28T00:22:35;2.10;99.90
19538;DHT22;9914;51.008;4.300;2023-02-28T00:25:02;2.10;99.90
19538;DHT22;9914;51.008;4.300;2023-02-28T00:27:29;2.10;99.90
19538;DHT22;9914;51.008;4.300;2023-02-28T00:29:54;2.10;99.90
19538;DHT22;9914;51.008;4.300;2023-02-28T00:32:20;2.20;99.90
19538;DHT22;9914;51.008;4.300;2023-02-28T00:34:45;2.00;99.90
19538;DHT22;9914;51.008;4.300;2023-02-28T00:37:11;1.70;99.90
19538;DHT22;9914;51.008;4.300;2023-02-28T00:39:40;1.70;99.90
19538;DHT22;9914;51.008;4.300;2023-02-28T00:42:06;1.50;99.90
19538;DHT22;9914;51.008;4.300;2023-02-28T00:44:32;1.70;99.90
19538;DHT22;9914;51.008;4.300;2023-02-28T00:46:58;1.80;99.90
19538;DHT22;9914;51.008;4.300;2023-02-28T00:49:25;1.60;99.90
19538;DHT22;9914;51.008;4.300;2023-02-28T00:51:51;1.70;99.90
19538;DHT22;9914;51.008;4.300;2023-02-28T00:54:18;1.80;99.90
19538;DHT22;9914;51.008;4.300;2023-02-28T00:56:43;1.70;99.90
19538;DHT22;9914;51.008;4.300;2023-02-28T00:59:11;1.50;99.90
19538;DHT22;9914;51.008;4.300;2023-02-28T01:01:37;1.40;99.90
19538;DHT22;9914;51.008;4.300;2023-02-28T01:04:02;1.60;99.90
19538;DHT22;9914;51.008;4.300;2023-02-28T01:06:28;1.60;99.90
19538;DHT22;9914;51.008;4.300;2023-02-28T01:08:54;1.70;99.90
19538;DHT22;9914;51.008;4.300;2023-02-28T01:11:19;1.50;99.90
19538;DHT22;9914;51.008;4.300;2023-02-28T01:13:46;1.50;99.90
19538;DHT22;9914;51.008;4.300;2023-02-28T01:16:12;1.60;99.90
19538;DHT22;9914;51.008;4.300;2023-02-28T01:18:38;1.70;99.90
19538;DHT22;9914;51.008;4.300;2023-02-28T01:21:10;1.60;99.90
19538;DHT22;9914;51.008;4.300;2023-02-28T01:23:35;1.60;99.90
19538;DHT22;9914;51.008;4.300;2023-02-28T01:26:09;1.50;99.90
19538;DHT22;9914;51.008;4.300;2023-02-28T01:28:36;1.50;99.90
19538;DHT22;9914;51.008;4.300;2023-02-28T01:31:02;1.50;99.90
19538;DHT22;9914;51.008;4.300;2023-02-28T01:33:27;1.50;99.90
19538;DHT22;9914;51.008;4.300;2023-02-28T01:36:00;1.70;99.90
19538;DHT22;9914;51.008;4.300;2023-02-28T01:38:26;1.60;99.90
19538;DHT22;9914;51.008;4.300;2023-02-28T01:40:52;1.70;99.90
19538;DHT22;9914;51.008;4.300;2023-02-28T01:43:23;1.50;99.90
19538;DHT22;9914;51.008;4.300;2023-02-28T01:45:50;1.40;99.90
19538;DHT22;9914;51.008;4.300;2023-02-28T01:48:17;1.30;99.90
19538;DHT22;9914;51.008;4.300;2023-02-28T01:50:45;1.30;99.90
19538;DHT22;9914;51.008;4.300;2023-02-28T01:53:15;1.30;99.90
19538;DHT22;9914;51.008;4.300;2023-02-28T01:55:46;1.30;99.90
19538;DHT22;9914;51.008;4.300;2023-02-28T01:58:12;1.50;99.90
19538;DHT22;9914;51.008;4.300;2023-02-28T02:00:38;1.40;99.90
19538;DHT22;9914;51.008;4.300;2023-02-28T02:03:09;1.30;99.90
19538;DHT22;9914;51.008;4.300;2023-02-28T02:05:37;1.20;99.90
19538;DHT22;9914;51.008;4.300;2023-02-28T02:08:06;1.10;99.90
19538;DHT22;9914;51.008;4.300;2023-02-28T02:10:43;1.10;99.90
19538;DHT22;9914;51.008;4.300;2023-02-28T02:18:57;1.00;99.90
19538;DHT22;9914;51.008;4.300;2023-02-28T02:27:23;1.20;99.90
19538;DHT22;9914;51.008;4.300;2023-02-28T02:32:55;1.20;99.90
19538;DHT22;9914;51.008;4.300;2023-02-28T02:35:29;1.20;99.90
19538;DHT22;9914;51.008;4.300;2023-02-28T02:38:11;1.30;99.90
19538;DHT22;9914;51.008;4.300;2023-02-28T02:41:10;1.10;99.90
19538;DHT22;9914;51.008;4.300;2023-02-28T02:46:23;1.10;99.90
19538;DHT22;9914;51.008;4.300;2023-02-28T02:48:50;1.00;99.90
19538;DHT22;9914;51.008;4.300;2023-02-28T02:51:19;1.10;99.90
19538;DHT22;9914;51.008;4.300;2023-02-28T02:53:57;1.00;99.90
19538;DHT22;9914;51.008;4.300;2023-02-28T02:56:28;1.10;99.90
19538;DHT22;9914;51.008;4.300;2023-02-28T02:58:57;1.00;99.90
19538;DHT22;9914;51.008;4.300;2023-02-28T03:01:26;0.80;99.90
19538;DHT22;9914;51.008;4.300;2023-02-28T03:03:59;0.70;99.90
19538;DHT22;9914;51.008;4.300;2023-02-28T03:06:26;0.90;99.90
19538;DHT22;9914;51.008;4.300;2023-02-28T03:08:52;0.90;99.90
19538;DHT22;9914;51.008;4.300;2023-02-28T03:11:18;0.70;99.90
19538;DHT22;9914;51.008;4.300;2023-02-28T03:13:52;0.70;99.90
19538;DHT22;9914;51.008;4.300;2023-02-28T03:16:31;0.70;99.90
19538;DHT22;9914;51.008;4.300;2023-02-28T03:24:50;0.80;99.90
19538;DHT22;9914;51.008;4.300;2023-02-28T03:27:26;0.80;99.90
19538;DHT22;9914;51.008;4.300;2023-02-28T03:32:35;0.90;99.90
19538;DHT22;9914;51.008;4.300;2023-02-28T03:35:24;0.90;99.90
19538;DHT22;9914;51.008;4.300;2023-02-28T03:37:56;0.70;99.90
19538;DHT22;9914;51.008;4.300;2023-02-28T03:40:30;0.80;99.90
19538;DHT22;9914;51.008;4.300;2023-02-28T03:43:03;0.90;99.90
19538;DHT22;9914;51.008;4.300;2023-02-28T03:45:33;1.00;99.90
19538;DHT22;9914;51.008;4.300;2023-02-28T03:48:13;1.00;99.90
19538;DHT22;9914;51.008;4.300;2023-02-28T03:50:43;0.70;99.90
19538;DHT22;9914;51.008;4.300;2023-02-28T03:55:57;0.80;99.90
19538;DHT22;9914;51.008;4.300;2023-02-28T03:58:38;0.80;99.90
19538;DHT22;9914;51.008;4.300;2023-02-28T04:01:24;0.70;99.90
19538;DHT22;9914;51.008;4.300;2023-02-28T04:03:51;0.70;99.90
19538;DHT22;9914;51.008;4.300;2023-02-28T04:06:19;0.50;99.90
19538;DHT22;9914;51.008;4.300;2023-02-28T04:08:46;0.40;99.90
19538;DHT22;9914;51.008;4.300;2023-02-28T04:11:24;0.60;99.90
19538;DHT22;9914;51.008;4.300;2023-02-28T04:13:51;0.60;99.90
19538;DHT22;9914;51.008;4.300;2023-02-28T04:16:17;0.60;99.90
19538;DHT22;9914;51.008;4.300;2023-02-28T04:18:43;0.50;99.90
19538;DHT22;9914;51.008;4.300;2023-02-28T04:21:09;0.60;99.90
19538;DHT22;9914;51.008;4.300;2023-02-28T04:23:35;0.80;99.90
19538;DHT22;9914;51.008;4.300;2023-02-28T04:26:01;1.10;99.90
19538;DHT22;9914;51.008;4.300;2023-02-28T04:28:27;1.10;99.90
19538;DHT22;9914;51.008;4.300;2023-02-28T04:30:56;0.90;99.90
19538;DHT22;9914;51.008;4.300;2023-02-28T04:33:22;1.20;99.90
19538;DHT22;9914;51.008;4.300;2023-02-28T04:35:48;1.20;99.90
19538;DHT22;9914;51.008;4.300;2023-02-28T04:38:13;1.40;99.90
19538;DHT22;9914;51.008;4.300;2023-02-28T04:40:39;1.30;99.90
19538;DHT22;9914;51.008;4.300;2023-02-28T04:43:04;1.40;99.90
19538;DHT22;9914;51.008;4.300;2023-02-28T04:45:30;1.30;99.90
19538;DHT22;9914;51.008;4.300;2023-02-28T04:47:57;1.50;99.90
19538;DHT22;9914;51.008;4.300;2023-02-28T04:50:23;1.50;99.90
19538;DHT22;9914;51.008;4.300;2023-02-28T04:52:49;1.70;99.90
19538;DHT22;9914;51.008;4.300;2023-02-28T04:55:15;1.60;99.90
19538;DHT22;9914;51.008;4.300;2023-02-28T04:57:40;1.70;99.90
19538;DHT22;9914;51.008;4.300;2023-02-28T05:00:08;1.60;99.90
19538;DHT22;9914;51.008;4.300;2023-02-28T05:02:37;1.50;99.90
19538;DHT22;9914;51.008;4.300;2023-02-28T05:05:04;1.60;99.90
19538;DHT22;9914;51.008;4.300;2023-02-28T05:07:30;1.80;99.90
19538;DHT22;9914;51.008;4.300;2023-02-28T05:09:55;1.90;99.90
19538;DHT22;9914;51.008;4.300;2023-02-28T05:12:21;1.70;99.90
19538;DHT22;9914;51.008;4.300;2023-02-28T05:14:46;1.60;99.90
19538;DHT22;9914;51.008;4.300;2023-02-28T05:17:12;1.50;99.90
19538;DHT22;9914;51.008;4.300;2023-02-28T05:19:38;1.50;99.90
19538;DHT22;9914;51.008;4.300;2023-02-28T05:22:03;1.60;99.90
19538;DHT22;9914;51.008;4.300;2023-02-28T05:24:29;1.90;99.90
19538;DHT22;9914;51.008;4.300;2023-02-28T05:26:55;1.90;99.90
19538;DHT22;9914;51.008;4.300;2023-02-28T05:29:21;1.90;99.90
19538;DHT22;9914;51.008;4.300;2023-02-28T05:31:46;2.00;99.90
19538;DHT22;9914;51.008;4.300;2023-02-28T05:34:12;1.90;99.90
19538;DHT22;9914;51.008;4.300;2023-02-28T05:36:40;1.90;99.90
19538;DHT22;9914;51.008;4.300;2023-02-28T05:39:07;2.10;99.90
19538;DHT22;9914;51.008;4.300;2023-02-28T05:41:38;2.20;99.90
19538;DHT22;9914;51.008;4.300;2023-02-28T05:44:04;2.30;99.90
19538;DHT22;9914;51.008;4.300;2023-02-28T05:46:29;2.20;99.90
19538;DHT22;9914;51.008;4.300;2023-02-28T05:48:55;2.40;99.90
19538;DHT22;9914;51.008;4.300;2023-02-28T05:51:23;2.20;99.90
19538;DHT22;9914;51.008;4.300;2023-02-28T05:53:48;2.20;99.90
19538;DHT22;9914;51.008;4.300;2023-02-28T05:56:15;2.00;99.90
19538;DHT22;9914;51.008;4.300;2023-02-28T05:58:40;2.10;99.90
19538;DHT22;9914;51.008;4.300;2023-02-28T06:01:34;2.30;99.90
19538;DHT22;9914;51.008;4.300;2023-02-28T06:04:01;2.50;99.90
19538;DHT22;9914;51.008;4.300;2023-02-28T06:06:27;2.70;99.90
19538;DHT22;9914;51.008;4.300;2023-02-28T06:08:53;2.60;99.90
19538;DHT22;9914;51.008;4.300;2023-02-28T06:11:19;2.50;99.90
19538;DHT22;9914;51.008;4.300;2023-02-28T06:13:45;2.50;99.90
19538;DHT22;9914;51.008;4.300;2023-02-28T06:16:11;2.50;99.90
19538;DHT22;9914;51.008;4.300;2023-02-28T06:18:37;2.10;99.90
19538;DHT22;9914;51.008;4.300;2023-02-28T06:21:03;2.30;99.90
19538;DHT22;9914;51.008;4.300;2023-02-28T06:23:29;2.30;99.90
19538;DHT22;9914;51.008;4.300;2023-02-28T06:25:54;2.30;99.90
19538;DHT22;9914;51.008;4.300;2023-02-28T06:28:24;2.20;99.90
19538;DHT22;9914;51.008;4.300;2023-02-28T06:30:49;2.30;99.90
19538;DHT22;9914;51.008;4.300;2023-02-28T06:33:15;2.30;99.90
19538;DHT22;9914;51.008;4.300;2023-02-28T06:35:44;2.30;99.90
19538;DHT22;9914;51.008;4.300;2023-02-28T06:38:09;2.20;99.90
19538;DHT22;9914;51.008;4.300;2023-02-28T06:40:36;2.30;99.90
19538;DHT22;9914;51.008;4.300;2023-02-28T06:43:02;2.20;99.90
19538;DHT22;9914;51.008;4.300;2023-02-28T06:45:28;2.30;99.90
19538;DHT22;9914;51.008;4.300;2023-02-28T06:47:54;2.30;99.90
19538;DHT22;9914;51.008;4.300;2023-02-28T06:50:20;2.30;99.90
19538;DHT22;9914;51.008;4.300;2023-02-28T06:52:46;2.50;99.90
19538;DHT22;9914;51.008;4.300;2023-02-28T06:55:12;2.50;99.90
19538;DHT22;9914;51.008;4.300;2023-02-28T06:57:38;2.40;99.90
19538;DHT22;9914;51.008;4.300;2023-02-28T07:00:08;2.40;99.90
19538;DHT22;9914;51.008;4.300;2023-02-28T07:02:35;2.40;99.90
19538;DHT22;9914;51.008;4.300;2023-02-28T07:05:01;2.30;99.90
19538;DHT22;9914;51.008;4.300;2023-02-28T07:07:27;2.30;99.90
19538;DHT22;9914;51.008;4.300;2023-02-28T07:09:52;2.60;99.90
19538;DHT22;9914;51.008;4.300;2023-02-28T07:12:18;2.70;99.90
19538;DHT22;9914;51.008;4.300;2023-02-28T07:14:43;2.60;99.90
19538;DHT22;9914;51.008;4.300;2023-02-28T07:17:10;2.50;99.90
19538;DHT22;9914;51.008;4.300;2023-02-28T07:19:38;2.60;99.90
19538;DHT22;9914;51.008;4.300;2023-02-28T07:22:03;2.70;99.90
19538;DHT22;9914;51.008;4.300;2023-02-28T07:24:29;3.00;99.90
19538;DHT22;9914;51.008;4.300;2023-02-28T07:26:55;3.10;99.90
19538;DHT22;9914;51.008;4.300;2023-02-28T07:29:21;3.10;99.90
19538;DHT22;9914;51.008;4.300;2023-02-28T07:31:46;3.40;99.90
19538;DHT22;9914;51.008;4.300;2023-02-28T07:34:13;3.20;99.90
19538;DHT22;9914;51.008;4.300;2023-02-28T07:36:39;3.20;99.90
19538;DHT22;9914;51.008;4.300;2023-02-28T07:39:04;3.20;99.90
19538;DHT22;9914;51.008;4.300;2023-02-28T07:41:30;3.20;99.90
19538;DHT22;9914;51.008;4.300;2023-02-28T07:43:59;3.10;99.90
19538;DHT22;9914;51.008;4.300;2023-02-28T07:46:25;3.30;99.90
19538;DHT22;9914;51.008;4.300;2023-02-28T07:48:51;3.50;99.90
19538;DHT22;9914;51.008;4.300;2023-02-28T07:51:18;3.50;99.90
19538;DHT22;9914;51.008;4.300;2023-02-28T07:53:44;3.70;99.90
19538;DHT22;9914;51.008;4.300;2023-02-28T07:56:09;3.90;99.90
19538;DHT22;9914;51.008;4.300;2023-02-28T07:58:36;3.90;99.90
19538;DHT22;9914;51.008;4.300;2023-02-28T08:01:09;3.90;99.90
19538;DHT22;9914;51.008;4.300;2023-02-28T08:03:37;3.90;99.90
19538;DHT22;9914;51.008;4.300;2023-02-28T08:06:07;3.70;99.90
19538;DHT22;9914;51.008;4.300;2023-02-28T08:08:33;3.80;99.90
19538;DHT22;9914;51.008;4.300;2023-02-28T08:11:03;4.00;99.90
19538;DHT22;9914;51.008;4.300;2023-02-28T08:13:29;3.90;99.90
19538;DHT22;9914;51.008;4.300;2023-02-28T08:15:55;3.90;99.90
19538;DHT22;9914;51.008;4.300;2023-02-28T08:18:22;3.90;99.90
19538;DHT22;9914;51.008;4.300;2023-02-28T08:20:48;3.90;99.90
19538;DHT22;9914;51.008;4.300;2023-02-28T08:23:13;3.90;99.90
19538;DHT22;9914;51.008;4.300;2023-02-28T08:25:39;4.10;99.90
19538;DHT22;9914;51.008;4.300;2023-02-28T08:28:05;4.10;99.90
19538;DHT22;9914;51.008;4.300;2023-02-28T08:30:31;4.00;99.90
19538;DHT22;9914;51.008;4.300;2023-02-28T08:32:56;4.30;99.90
19538;DHT22;9914;51.008;4.300;2023-02-28T08:35:22;4.50;99.90
19538;DHT22;9914;51.008;4.300;2023-02-28T08:37:48;4.40;99.90
19538;DHT22;9914;51.008;4.300;2023-02-28T08:40:15;4.40;99.90
19538;DHT22;9914;51.008;4.300;2023-02-28T08:42:46;4.50;99.90
19538;DHT22;9914;51.008;4.300;2023-02-28T08:45:14;4.50;99.90
19538;DHT22;9914;51.008;4.300;2023-02-28T08:47:40;4.40;99.90
19538;DHT22;9914;51.008;4.300;2023-02-28T08:50:06;4.30;99.90
19538;DHT22;9914;51.008;4.300;2023-02-28T08:52:32;4.60;99.90
19538;DHT22;9914;51.008;4.300;2023-02-28T08:54:58;4.50;99.90
19538;DHT22;9914;51.008;4.300;2023-02-28T08:57:24;4.70;99.90
19538;DHT22;9914;51.008;4.300;2023-02-28T08:59:51;4.60;99.90
19538;DHT22;9914;51.008;4.300;2023-02-28T09:02:17;4.70;99.90
19538;DHT22;9914;51.008;4.300;2023-02-28T09:04:43;4.60;99.90
19538;DHT22;9914;51.008;4.300;2023-02-28T09:07:11;4.90;99.90
19538;DHT22;9914;51.008;4.300;2023-02-28T09:09:36;5.10;99.90
19538;DHT22;9914;51.008;4.300;2023-02-28T09:12:03;5.20;99.90
19538;DHT22;9914;51.008;4.300;2023-02-28T09:14:29;5.30;99.90
19538;DHT22;9914;51.008;4.300;2023-02-28T09:16:55;5.20;99.90
19538;DHT22;9914;51.008;4.300;2023-02-28T09:19:20;5.40;99.90
19538;DHT22;9914;51.008;4.300;2023-02-28T09:21:46;5.00;99.90
19538;DHT22;9914;51.008;4.300;2023-02-28T09:24:11;5.30;99.90
19538;DHT22;9914;51.008;4.300;2023-02-28T09:26:39;5.30;99.90
19538;DHT22;9914;51.008;4.300;2023-02-28T09:29:05;5.50;99.90
19538;DHT22;9914;51.008;4.300;2023-02-28T09:31:32;5.60;99.90
19538;DHT22;9914;51.008;4.300;2023-02-28T09:33:58;5.90;99.90
19538;DHT22;9914;51.008;4.300;2023-02-28T09:36:26;5.90;99.90
19538;DHT22;9914;51.008;4.300;2023-02-28T09:38:52;5.90;99.90
19538;DHT22;9914;51.008;4.300;2023-02-28T09:41:23;5.70;99.90
19538;DHT22;9914;51.008;4.300;2023-02-28T09:44:00;5.60;99.90
19538;DHT22;9914;51.008;4.300;2023-02-28T09:49:06;5.70;99.90
19538;DHT22;9914;51.008;4.300;2023-02-28T09:54:18;5.90;99.90
19538;DHT22;9914;51.008;4.300;2023-02-28T09:56:49;5.80;99.90
19538;DHT22;9914;51.008;4.300;2023-02-28T09:59:28;5.50;99.90
19538;DHT22;9914;51.008;4.300;2023-02-28T10:04:54;5.20;99.90
19538;DHT22;9914;51.008;4.300;2023-02-28T10:10:24;5.30;99.90
19538;DHT22;9914;51.008;4.300;2023-02-28T10:12:54;5.40;99.90
19538;DHT22;9914;51.008;4.300;2023-02-28T10:15:24;5.40;99.90
19538;DHT22;9914;51.008;4.300;2023-02-28T10:17:54;5.40;99.90
19538;DHT22;9914;51.008;4.300;2023-02-28T10:20:23;5.40;99.90
19538;DHT22;9914;51.008;4.300;2023-02-28T10:25:34;5.50;99.90
19538;DHT22;9914;51.008;4.300;2023-02-28T10:28:15;5.30;99.90
19538;DHT22;9914;51.008;4.300;2023-02-28T10:30:49;5.30;99.90
19538;DHT22;9914;51.008;4.300;2023-02-28T10:33:32;5.40;99.90
19538;DHT22;9914;51.008;4.300;2023-02-28T10:36:00;5.60;99.90
19538;DHT22;9914;51.008;4.300;2023-02-28T10:38:34;5.40;99.90
19538;DHT22;9914;51.008;4.300;2023-02-28T10:41:27;5.50;99.90
19538;DHT22;9914;51.008;4.300;2023-02-28T10:44:17;5.20;99.90
19538;DHT22;9914;51.008;4.300;2023-02-28T10:46:45;5.50;99.90
19538;DHT22;9914;51.008;4.300;2023-02-28T10:49:21;5.70;99.90
19538;DHT22;9914;51.008;4.300;2023-02-28T10:51:49;5.90;99.90
19538;DHT22;9914;51.008;4.300;2023-02-28T10:54:38;5.80;99.90
19538;DHT22;9914;51.008;4.300;2023-02-28T10:57:23;5.80;99.90
19538;DHT22;9914;51.008;4.300;2023-02-28T11:00:13;5.40;99.90
19538;DHT22;9914;51.008;4.300;2023-02-28T11:02:39;5.50;99.90
19538;DHT22;9914;51.008;4.300;2023-02-28T11:08:06;5.30;99.90
19538;DHT22;9914;51.008;4.300;2023-02-28T11:10:36;5.40;99.90
19538;DHT22;9914;51.008;4.300;2023-02-28T11:13:02;5.60;99.90
19538;DHT22;9914;51.008;4.300;2023-02-28T11:15:37;5.80;99.90
19538;DHT22;9914;51.008;4.300;2023-02-28T11:18:21;6.00;99.90
19538;DHT22;9914;51.008;4.300;2023-02-28T11:20:50;5.90;99.90
19538;DHT22;9914;51.008;4.300;2023-02-28T11:23:17;5.70;99.90
19538;DHT22;9914;51.008;4.300;2023-02-28T11:25:56;5.70;99.90
19538;DHT22;9914;51.008;4.300;2023-02-28T11:28:46;5.80;99.90
19538;DHT22;9914;51.008;4.300;2023-02-28T11:33:53;6.30;99.90
19538;DHT22;9914;51.008;4.300;2023-02-28T11:38:50;6.30;99.90
19538;DHT22;9914;51.008;4.300;2023-02-28T11:44:15;6.00;99.90
19538;DHT22;9914;51.008;4.300;2023-02-28T11:55:59;6.10;99.90
19538;DHT22;9914;51.008;4.300;2023-02-28T12:01:26;6.50;99.90
19538;DHT22;9914;51.008;4.300;2023-02-28T12:06:22;6.70;99.90
19538;DHT22;9914;51.008;4.300;2023-02-28T12:12:22;6.60;99.90
19538;DHT22;9914;51.008;4.300;2023-02-28T12:25:59;6.60;99.90
19538;DHT22;9914;51.008;4.300;2023-02-28T12:28:32;6.80;99.90
19538;DHT22;9914;51.008;4.300;2023-02-28T12:31:09;6.90;99.90
19538;DHT22;9914;51.008;4.300;2023-02-28T12:33:40;6.80;99.90
19538;DHT22;9914;51.008;4.300;2023-02-28T12:36:13;6.80;99.90
19538;DHT22;9914;51.008;4.300;2023-02-28T12:41:29;6.50;99.90
19538;DHT22;9914;51.008;4.300;2023-02-28T12:44:26;6.70;99.90
19538;DHT22;9914;51.008;4.300;2023-02-28T12:46:56;7.00;99.90
19538;DHT22;9914;51.008;4.300;2023-02-28T12:50:02;7.00;99.90
19538;DHT22;9914;51.008;4.300;2023-02-28T12:58:14;6.70;99.90
19538;DHT22;9914;51.008;4.300;2023-02-28T13:11:30;7.30;99.90
19538;DHT22;9914;51.008;4.300;2023-02-28T13:14:05;6.90;99.90
19538;DHT22;9914;51.008;4.300;2023-02-28T13:16:57;6.50;99.90
19538;DHT22;9914;51.008;4.300;2023-02-28T13:19:30;6.60;99.90
19538;DHT22;9914;51.008;4.300;2023-02-28T13:21:57;6.90;99.90
19538;DHT22;9914;51.008;4.300;2023-02-28T13:29:42;7.70;99.90
19538;DHT22;9914;51.008;4.300;2023-02-28T13:34:37;7.50;99.90
19538;DHT22;9914;51.008;4.300;2023-02-28T13:39:57;7.20;99.90
19538;DHT22;9914;51.008;4.300;2023-02-28T13:47:51;7.10;99.90
19538;DHT22;9914;51.008;4.300;2023-02-28T13:58:43;7.00;99.90
19538;DHT22;9914;51.008;4.300;2023-02-28T14:01:45;6.90;99.90
19538;DHT22;9914;51.008;4.300;2023-02-28T14:04:46;6.70;99.90
19538;DHT22;9914;51.008;4.300;2023-02-28T14:07:23;6.70;99.90
19538;DHT22;9914;51.008;4.300;2023-02-28T14:09:56;6.70;99.90
19538;DHT22;9914;51.008;4.300;2023-02-28T14:15:36;6.50;99.90
19538;DHT22;9914;51.008;4.300;2023-02-28T14:18:16;6.50;99.90
19538;DHT22;9914;51.008;4.300;2023-02-28T14:20:43;6.50;99.90
19538;DHT22;9914;51.008;4.300;2023-02-28T14:23:31;6.60;99.90
19538;DHT22;9914;51.008;4.300;2023-02-28T14:26:21;6.80;99.90
19538;DHT22;9914;51.008;4.300;2023-02-28T14:29:56;6.80;99.90
19538;DHT22;9914;51.008;4.300;2023-02-28T14:32:15;6.80;99.90
19538;DHT22;9914;51.008;4.300;2023-02-28T14:37:32;6.90;99.90
19538;DHT22;9914;51.008;4.300;2023-02-28T14:39:59;7.00;99.90
19538;DHT22;9914;51.008;4.300;2023-02-28T14:42:36;6.90;99.90
19538;DHT22;9914;51.008;4.300;2023-02-28T14:45:19;6.90;99.90
19538;DHT22;9914;51.008;4.300;2023-02-28T14:47:46;7.00;99.90
19538;DHT22;9914;51.008;4.300;2023-02-28T14:50:23;7.00;99.90
19538;DHT22;9914;51.008;4.300;2023-02-28T14:52:53;7.00;99.90
19538;DHT22;9914;51.008;4.300;2023-02-28T14:55:23;7.00;99.90
19538;DHT22;9914;51.008;4.300;2023-02-28T14:57:55;7.00;99.90
19538;DHT22;9914;51.008;4.300;2023-02-28T15:00:29;7.00;99.90
19538;DHT22;9914;51.008;4.300;2023-02-28T15:02:57;7.20;99.90
19538;DHT22;9914;51.008;4.300;2023-02-28T15:05:31;7.30;99.90
19538;DHT22;9914;51.008;4.300;2023-02-28T15:08:16;7.10;99.90
19538;DHT22;9914;51.008;4.300;2023-02-28T15:11:00;7.00;99.90
19538;DHT22;9914;51.008;4.300;2023-02-28T15:16:06;7.30;99.90
19538;DHT22;9914;51.008;4.300;2023-02-28T15:21:09;7.00;99.90
19538;DHT22;9914;51.008;4.300;2023-02-28T15:23:37;6.80;99.90
19538;DHT22;9914;51.008;4.300;2023-02-28T15:26:03;6.70;99.90
19538;DHT22;9914;51.008;4.300;2023-02-28T15:28:30;6.60;99.90
19538;DHT22;9914;51.008;4.300;2023-02-28T15:31:02;6.60;99.90
19538;DHT22;9914;51.008;4.300;2023-02-28T15:33:32;6.70;99.90
19538;DHT22;9914;51.008;4.300;2023-02-28T15:36:15;6.90;99.90
19538;DHT22;9914;51.008;4.300;2023-02-28T15:38:43;6.70;99.90
19538;DHT22;9914;51.008;4.300;2023-02-28T15:41:26;6.60;99.90
19538;DHT22;9914;51.008;4.300;2023-02-28T15:44:44;6.70;99.90
19538;DHT22;9914;51.008;4.300;2023-02-28T15:47:04;6.60;99.90
19538;DHT22;9914;51.008;4.300;2023-02-28T15:49:44;6.50;99.90
19538;DHT22;9914;51.008;4.300;2023-02-28T15:52:16;6.50;99.90
19538;DHT22;9914;51.008;4.300;2023-02-28T15:54:43;6.50;99.90
19538;DHT22;9914;51.008;4.300;2023-02-28T15:57:22;6.70;99.90
19538;DHT22;9914;51.008;4.300;2023-02-28T15:59:55;6.90;99.90
19538;DHT22;9914;51.008;4.300;2023-02-28T16:02:29;7.10;99.90
19538;DHT22;9914;51.008;4.300;2023-02-28T16:04:59;7.00;99.90
19538;DHT22;9914;51.008;4.300;2023-02-28T16:07:26;6.80;99.90
19538;DHT22;9914;51.008;4.300;2023-02-28T16:09:52;6.70;99.90
19538;DHT22;9914;51.008;4.300;2023-02-28T16:12:19;6.70;99.90
19538;DHT22;9914;51.008;4.300;2023-02-28T16:14:47;7.10;99.90
19538;DHT22;9914;51.008;4.300;2023-02-28T16:17:20;7.90;99.90
19538;DHT22;9914;51.008;4.300;2023-02-28T16:19:46;8.50;99.90
19538;DHT22;9914;51.008;4.300;2023-02-28T16:22:12;8.60;99.90
19538;DHT22;9914;51.008;4.300;2023-02-28T16:24:37;8.30;99.90
19538;DHT22;9914;51.008;4.300;2023-02-28T16:27:05;8.60;99.90
19538;DHT22;9914;51.008;4.300;2023-02-28T16:29:35;8.50;99.90
19538;DHT22;9914;51.008;4.300;2023-02-28T16:32:04;8.20;99.90
19538;DHT22;9914;51.008;4.300;2023-02-28T16:34:30;8.70;99.90
19538;DHT22;9914;51.008;4.300;2023-02-28T16:36:56;9.20;99.90
19538;DHT22;9914;51.008;4.300;2023-02-28T16:39:22;8.90;99.90
19538;DHT22;9914;51.008;4.300;2023-02-28T16:41:49;8.70;99.90
19538;DHT22;9914;51.008;4.300;2023-02-28T16:44:31;8.00;99.90
19538;DHT22;9914;51.008;4.300;2023-02-28T16:46:59;7.70;99.90
19538;DHT22;9914;51.008;4.300;2023-02-28T16:49:25;7.80;99.90
19538;DHT22;9914;51.008;4.300;2023-02-28T16:51:50;7.90;99.90
19538;DHT22;9914;51.008;4.300;2023-02-28T16:54:16;8.10;99.90
19538;DHT22;9914;51.008;4.300;2023-02-28T16:56:45;8.40;99.90
19538;DHT22;9914;51.008;4.300;2023-02-28T16:59:12;8.20;99.90
19538;DHT22;9914;51.008;4.300;2023-02-28T17:01:38;7.90;99.90
19538;DHT22;9914;51.008;4.300;2023-02-28T17:04:03;7.50;99.90
19538;DHT22;9914;51.008;4.300;2023-02-28T17:06:30;7.20;99.90
19538;DHT22;9914;51.008;4.300;2023-02-28T17:08:57;7.00;99.90
19538;DHT22;9914;51.008;4.300;2023-02-28T17:11:24;6.70;99.90
19538;DHT22;9914;51.008;4.300;2023-02-28T17:13:50;6.60;99.90
19538;DHT22;9914;51.008;4.300;2023-02-28T17:16:30;6.30;99.90
19538;DHT22;9914;51.008;4.300;2023-02-28T17:18:58;6.00;99.90
19538;DHT22;9914;51.008;4.300;2023-02-28T17:21:24;5.90;99.90
19538;DHT22;9914;51.008;4.300;2023-02-28T17:23:50;5.90;99.90
19538;DHT22;9914;51.008;4.300;2023-02-28T17:26:17;5.80;99.90
19538;DHT22;9914;51.008;4.300;2023-02-28T17:28:46;5.80;99.90
19538;DHT22;9914;51.008;4.300;2023-02-28T17:31:12;5.60;99.90
19538;DHT22;9914;51.008;4.300;2023-02-28T17:33:37;5.50;99.90
19538;DHT22;9914;51.008;4.300;2023-02-28T17:36:03;5.40;99.90
19538;DHT22;9914;51.008;4.300;2023-02-28T17:38:29;5.40;99.90
19538;DHT22;9914;51.008;4.300;2023-02-28T17:40:54;5.20;99.90
19538;DHT22;9914;51.008;4.300;2023-02-28T17:43:24;5.10;99.90
19538;DHT22;9914;51.008;4.300;2023-02-28T17:45:49;5.40;99.90
19538;DHT22;9914;51.008;4.300;2023-02-28T17:48:15;5.20;99.90
19538;DHT22;9914;51.008;4.300;2023-02-28T17:50:41;5.10;99.90
19538;DHT22;9914;51.008;4.300;2023-02-28T17:53:07;5.00;99.90
19538;DHT22;9914;51.008;4.300;2023-02-28T17:55:32;4.90;99.90
19538;DHT22;9914;51.008;4.300;2023-02-28T17:57:59;4.70;99.90
19538;DHT22;9914;51.008;4.300;2023-02-28T18:00:25;4.60;99.90
19538;DHT22;9914;51.008;4.300;2023-02-28T18:02:51;4.70;99.90
19538;DHT22;9914;51.008;4.300;2023-02-28T18:05:17;4.80;99.90
19538;DHT22;9914;51.008;4.300;2023-02-28T18:07:42;4.70;99.90
19538;DHT22;9914;51.008;4.300;2023-02-28T18:10:15;4.60;99.90
19538;DHT22;9914;51.008;4.300;2023-02-28T18:12:41;4.60;99.90
19538;DHT22;9914;51.008;4.300;2023-02-28T18:15:07;4.50;99.90
19538;DHT22;9914;51.008;4.300;2023-02-28T18:17:33;4.30;99.90
19538;DHT22;9914;51.008;4.300;2023-02-28T18:19:58;4.20;99.90
19538;DHT22;9914;51.008;4.300;2023-02-28T18:22:24;4.40;99.90
19538;DHT22;9914;51.008;4.300;2023-02-28T18:24:50;4.30;99.90
19538;DHT22;9914;51.008;4.300;2023-02-28T18:27:15;4.30;99.90
19538;DHT22;9914;51.008;4.300;2023-02-28T18:29:41;4.20;99.90
19538;DHT22;9914;51.008;4.300;2023-02-28T18:32:07;4.20;99.90
19538;DHT22;9914;51.008;4.300;2023-02-28T18:34:34;4.10;99.90